Time;durP1;ratioP1;P1;durP2;ratioP2;P2;SDS_P1;SDS_P2;PMS_P1;PMS_P2;Temp;Humidity;BMP_temperature;BMP_pressure;BME280_temperature;BME280_humidity;BME280_pressure;Samples;Min_cycle;Max_cycle;Signal;HPM_P1;HPM_P2
2022/06/03 00:02:13;;;;;;;6.22;2.30;;;13.30;99.90;;;;;;5008487;28;20412;-84
2022/06/03 00:05:20;;;;;;;5.97;2.30;;;13.30;99.90;;;;;;4959165;28;20034;-84
2022/06/03 00:08:10;;;;;;;7.63;2.95;;;13.20;99.90;;;;;;4975415;28;20034;-84
2022/06/03 00:11:09;;;;;;;6.18;2.60;;;13.30;99.90;;;;;;4991315;28;20042;-84
2022/06/03 00:13:35;;;;;;;7.25;2.60;;;13.20;99.90;;;;;;4975828;28;20129;-84
2022/06/03 00:16:12;;;;;;;8.00;2.92;;;13.20;99.90;;;;;;4991771;28;20121;-84
2022/06/03 00:19:13;;;;;;;8.82;2.55;;;13.20;99.90;;;;;;4991068;28;20070;-84
2022/06/03 00:21:41;;;;;;;7.00;2.38;;;13.20;99.90;;;;;;5007928;28;20104;-84
2022/06/03 00:24:26;;;;;;;8.07;3.28;;;13.10;99.90;;;;;;4974475;28;20519;-84
2022/06/03 00:27:18;;;;;;;7.78;3.03;;;13.20;99.90;;;;;;4975250;28;20523;-84
2022/06/03 00:29:52;;;;;;;8.45;3.67;;;13.10;99.90;;;;;;4975026;28;20054;-84
2022/06/03 00:32:36;;;;;;;8.07;2.40;;;13.20;99.90;;;;;;4975592;28;20500;-83
2022/06/03 00:35:03;;;;;;;6.80;2.58;;;13.10;99.90;;;;;;4975049;28;20038;-84
2022/06/03 00:37:47;;;;;;;7.47;2.45;;;13.00;99.90;;;;;;4974683;28;20133;-84
2022/06/03 00:40:37;;;;;;;7.00;2.60;;;13.00;99.90;;;;;;4974813;28;20046;-84
2022/06/03 00:43:40;;;;;;;6.13;2.50;;;12.90;99.90;;;;;;4975094;28;20042;-84
2022/06/03 00:46:35;;;;;;;8.85;2.78;;;12.80;99.90;;;;;;5007834;28;20117;-84
2022/06/03 00:49:28;;;;;;;6.78;2.90;;;12.80;99.90;;;;;;4974423;28;20034;-84
2022/06/03 00:52:26;;;;;;;7.53;3.22;;;12.70;99.90;;;;;;4959086;28;20050;-84
2022/06/03 00:55:12;;;;;;;9.70;2.97;;;12.70;99.90;;;;;;4958735;28;20047;-84
2022/06/03 00:57:41;;;;;;;7.00;2.08;;;12.60;99.90;;;;;;5007544;28;20046;-84
2022/06/03 01:00:30;;;;;;;6.80;2.45;;;12.40;99.90;;;;;;4990902;28;20042;-84
2022/06/03 01:03:10;;;;;;;6.28;2.58;;;12.40;99.90;;;;;;5007064;28;20046;-84
2022/06/03 01:05:54;;;;;;;7.28;2.63;;;12.30;99.90;;;;;;4991229;28;20388;-84
2022/06/03 01:08:35;;;;;;;7.15;2.80;;;12.30;99.90;;;;;;4974519;28;20042;-84
2022/06/03 01:11:18;;;;;;;8.00;3.88;;;12.30;99.90;;;;;;4974399;28;20121;-84
2022/06/03 01:13:58;;;;;;;6.77;2.67;;;12.30;99.90;;;;;;4958774;28;20097;-84
2022/06/03 01:16:30;;;;;;;6.43;2.75;;;12.30;99.90;;;;;;4990979;28;20365;-84
2022/06/03 01:19:07;;;;;;;8.00;3.03;;;12.20;99.90;;;;;;4974209;28;20500;-84
2022/06/03 01:21:41;;;;;;;8.68;2.92;;;12.20;99.90;;;;;;4991124;28;20568;-84
2022/06/03 01:24:22;;;;;;;8.93;4.20;;;12.20;99.90;;;;;;4991140;28;20043;-84
2022/06/03 01:27:16;;;;;;;7.20;3.00;;;12.20;99.90;;;;;;4990606;28;20038;-84
2022/06/03 01:30:18;;;;;;;6.28;2.38;;;12.20;99.90;;;;;;4990808;28;20497;-83
2022/06/03 01:33:09;;;;;;;7.53;3.03;;;12.10;99.90;;;;;;4923498;28;20396;-84
2022/06/03 01:35:52;;;;;;;7.53;3.00;;;12.00;99.90;;;;;;4993391;28;20472;-84
2022/06/03 01:38:27;;;;;;;7.43;2.97;;;12.00;99.90;;;;;;4978065;28;20048;-83
2022/06/03 01:41:28;;;;;;;7.88;2.72;;;11.90;99.90;;;;;;4978264;28;20345;-83
2022/06/03 01:44:26;;;;;;;9.13;4.18;;;11.80;99.90;;;;;;4978307;28;20118;-83
2022/06/03 01:47:10;;;;;;;7.13;3.03;;;11.80;99.90;;;;;;4977979;28;20034;-84
2022/06/03 01:50:02;;;;;;;9.95;3.40;;;11.60;99.90;;;;;;4977845;28;20049;-84
2022/06/03 01:52:57;;;;;;;7.00;3.20;;;11.60;99.90;;;;;;4994450;28;20038;-84
2022/06/03 01:55:45;;;;;;;8.30;3.08;;;11.60;99.90;;;;;;4994017;28;20046;-84
2022/06/03 01:58:29;;;;;;;9.35;4.82;;;11.60;99.90;;;;;;4978044;28;20073;-84
2022/06/03 02:01:16;;;;;;;8.52;3.45;;;11.60;99.90;;;;;;4978085;28;20046;-83
2022/06/03 02:04:24;;;;;;;8.65;4.10;;;11.60;99.90;;;;;;4961695;28;20058;-84
2022/06/03 02:06:59;;;;;;;7.30;3.05;;;11.50;99.90;;;;;;4978018;28;20045;-83
2022/06/03 02:09:52;;;;;;;7.50;3.30;;;11.50;99.90;;;;;;4993473;28;20567;-83
2022/06/03 02:12:33;;;;;;;;;;;11.40;99.90;;;;;;4978277;28;20042;-83
2022/06/03 02:15:12;;;;;;;8.82;3.05;;;11.30;99.90;;;;;;4961929;28;19918;-84
2022/06/03 02:18:15;;;;;;;9.60;3.22;;;11.30;99.90;;;;;;4977487;28;20046;-84
2022/06/03 02:20:46;;;;;;;8.68;3.20;;;11.20;99.90;;;;;;4963832;28;20054;-84
2022/06/03 02:23:15;;;;;;;9.02;3.63;;;11.20;99.90;;;;;;4993656;28;20050;-84
2022/06/03 02:25:59;;;;;;;6.97;3.35;;;11.20;99.90;;;;;;4977144;28;20169;-83
2022/06/03 02:28:50;;;;;;;8.20;3.10;;;11.20;99.90;;;;;;4993614;28;20053;-84
2022/06/03 02:31:35;;;;;;;8.15;3.45;;;11.10;99.90;;;;;;4961153;28;20045;-83
2022/06/03 02:34:29;;;;;;;9.82;3.72;;;11.10;99.90;;;;;;4993790;28;20523;-83
2022/06/03 02:37:23;;;;;;;8.45;3.25;;;11.00;99.90;;;;;;4961284;28;20034;-83
2022/06/03 02:40:06;;;;;;;9.07;3.65;;;11.00;99.90;;;;;;4976425;28;20042;-82
2022/06/03 02:42:46;;;;;;;7.90;3.67;;;11.00;99.90;;;;;;4954630;28;20408;-83
2022/06/03 02:45:38;;;;;;;8.10;3.28;;;11.00;99.90;;;;;;4977555;28;20117;-83
2022/06/03 02:48:37;;;;;;;8.55;3.50;;;11.00;99.90;;;;;;5008335;28;20050;-83
2022/06/03 02:51:28;;;;;;;9.45;3.63;;;10.90;99.90;;;;;;5009893;28;20424;-83
2022/06/03 02:54:23;;;;;;;9.65;3.75;;;10.90;99.90;;;;;;4993077;28;20050;-83
2022/06/03 02:57:11;;;;;;;9.98;3.45;;;10.90;99.90;;;;;;4977081;28;20039;-82
2022/06/03 02:59:52;;;;;;;8.90;3.40;;;10.90;99.90;;;;;;4992740;28;20086;-83
2022/06/03 03:02:35;;;;;;;8.95;3.60;;;10.80;99.90;;;;;;4976496;28;20096;-83
2022/06/03 03:05:09;;;;;;;9.20;3.90;;;10.80;99.90;;;;;;4977332;28;20068;-83
2022/06/03 03:07:46;;;;;;;8.75;3.95;;;10.80;99.90;;;;;;4976708;28;20097;-83
2022/06/03 03:10:30;;;;;;;7.90;3.78;;;10.70;99.90;;;;;;4976394;28;20042;-83
2022/06/03 03:13:19;;;;;;;8.80;3.83;;;10.70;99.90;;;;;;4976848;28;20133;-83
2022/06/03 03:16:07;;;;;;;9.32;3.70;;;10.70;99.90;;;;;;4976433;28;20591;-83
2022/06/03 03:19:00;;;;;;;8.13;3.80;;;10.70;99.90;;;;;;4976188;28;20057;-82
2022/06/03 03:21:41;;;;;;;11.87;4.23;;;10.70;99.90;;;;;;4976655;28;20069;-83
2022/06/03 03:24:19;;;;;;;9.73;4.30;;;10.70;99.90;;;;;;4993805;28;20281;-83
2022/06/03 03:27:12;;;;;;;9.20;4.13;;;10.60;99.90;;;;;;4976619;28;20050;-83
2022/06/03 03:29:46;;;;;;;11.00;3.90;;;10.70;99.90;;;;;;4992488;28;20042;-83
2022/06/03 03:32:21;;;;;;;9.70;4.43;;;10.60;99.90;;;;;;4975973;28;20050;-83
2022/06/03 03:34:49;;;;;;;11.10;4.30;;;10.60;99.90;;;;;;4992499;28;20050;-83
2022/06/03 03:37:46;;;;;;;8.68;4.07;;;10.70;99.90;;;;;;4975879;28;20081;-83
2022/06/03 03:40:43;;;;;;;9.35;4.07;;;10.70;99.90;;;;;;5008866;28;20566;-83
2022/06/03 03:43:43;;;;;;;10.30;4.28;;;10.60;99.90;;;;;;4959979;28;20051;-83
2022/06/03 03:47:00;;;;;;;10.10;4.47;;;10.60;99.90;;;;;;4975903;28;20514;-83
2022/06/03 03:49:28;;;;;;;9.52;3.88;;;10.60;99.90;;;;;;4959740;28;20476;-83
2022/06/03 03:52:18;;;;;;;11.88;4.35;;;10.60;99.90;;;;;;4975858;28;20054;-83
2022/06/03 03:55:03;;;;;;;8.65;4.15;;;10.60;99.90;;;;;;4975621;28;20416;-83
2022/06/03 03:57:39;;;;;;;10.73;4.15;;;10.60;99.90;;;;;;4991748;28;20046;-83
2022/06/03 04:00:24;;;;;;;9.60;4.32;;;10.60;99.90;;;;;;4975299;28;20508;-83
2022/06/03 04:03:14;;;;;;;9.73;4.20;;;10.60;99.90;;;;;;5008299;28;20039;-83
2022/06/03 04:06:31;;;;;;;10.25;4.40;;;10.60;99.90;;;;;;4975942;28;20034;-83
2022/06/03 04:09:19;;;;;;;10.98;4.45;;;10.60;99.90;;;;;;4879061;29;20420;-83
2022/06/03 04:11:59;;;;;;;9.00;4.05;;;10.60;99.90;;;;;;4959662;28;20080;-83
2022/06/03 04:14:40;;;;;;;11.60;4.78;;;10.60;99.90;;;;;;4991818;28;20081;-83
2022/06/03 04:17:24;;;;;;;10.45;5.15;;;10.70;99.90;;;;;;4975421;28;20046;-82
2022/06/03 04:20:09;;;;;;;9.63;4.43;;;10.70;99.90;;;;;;4991421;28;20042;-83
2022/06/03 04:22:40;;;;;;;10.27;4.63;;;10.70;99.90;;;;;;4975082;28;20050;-83
2022/06/03 04:25:28;;;;;;;11.18;5.40;;;10.80;99.90;;;;;;4975150;28;20038;-83
2022/06/03 04:28:34;;;;;;;10.80;5.45;;;10.80;99.90;;;;;;5007681;28;20042;-83
2022/06/03 04:31:21;;;;;;;12.68;5.60;;;10.90;99.90;;;;;;5007698;28;20097;-83
2022/06/03 04:34:11;;;;;;;12.65;5.65;;;11.00;99.90;;;;;;4991605;28;20034;-83
2022/06/03 04:36:36;;;;;;;12.48;6.25;;;11.00;99.90;;;;;;4975432;28;20042;-83
2022/06/03 04:39:30;;;;;;;11.65;5.85;;;11.10;99.90;;;;;;4974285;28;20042;-83
2022/06/03 04:42:33;;;;;;;14.25;5.97;;;11.20;99.90;;;;;;4959082;28;20121;-83
2022/06/03 04:45:21;;;;;;;9.18;4.50;;;11.30;99.90;;;;;;4958717;28;20125;-83
2022/06/03 04:47:56;;;;;;;11.32;5.40;;;11.40;99.90;;;;;;4938562;28;20050;-83
2022/06/03 04:50:57;;;;;;;11.13;5.28;;;11.50;99.90;;;;;;4991256;28;20034;-84
2022/06/03 04:54:01;;;;;;;10.73;5.68;;;11.60;99.90;;;;;;4958587;28;20128;-84
2022/06/03 04:56:41;;;;;;;;;;;11.60;99.90;;;;;;5008229;28;20046;-84
2022/06/03 04:59:44;;;;;;;10.98;5.30;;;11.70;99.90;;;;;;4958191;28;19918;-84
2022/06/03 05:02:47;;;;;;;9.27;4.72;;;11.80;99.90;;;;;;4991125;28;20404;-83
2022/06/03 05:05:52;;;;;;;9.77;4.28;;;11.80;99.90;;;;;;4975022;28;20038;-84
2022/06/03 05:08:34;;;;;;;11.48;5.22;;;11.90;99.90;;;;;;5006808;28;20046;-83
2022/06/03 05:11:36;;;;;;;11.52;4.65;;;12.00;99.90;;;;;;4997363;28;20428;-83
2022/06/03 05:14:31;;;;;;;11.55;5.97;;;12.10;99.90;;;;;;5013601;28;20042;-84
2022/06/03 05:17:36;;;;;;;10.18;5.35;;;12.10;99.90;;;;;;4951804;28;20674;-84
2022/06/03 05:20:12;;;;;;;10.52;5.15;;;12.20;99.90;;;;;;4965049;28;20042;-84
2022/06/03 05:22:50;;;;;;;11.57;5.28;;;12.30;99.90;;;;;;4980873;28;20092;-84
2022/06/03 05:25:50;;;;;;;11.82;5.55;;;12.30;99.90;;;;;;4997316;28;20092;-83
2022/06/03 05:28:42;;;;;;;11.15;6.78;;;12.40;99.90;;;;;;4981181;28;20038;-84
2022/06/03 05:31:31;;;;;;;10.37;4.33;;;12.60;99.90;;;;;;4997517;28;20046;-84
2022/06/03 05:34:26;;;;;;;11.30;4.97;;;12.60;99.90;;;;;;4981445;28;20469;-84
2022/06/03 05:37:11;;;;;;;9.88;4.60;;;12.70;99.90;;;;;;4964630;28;20084;-84
2022/06/03 05:39:50;;;;;;;9.77;5.97;;;12.70;99.90;;;;;;4980683;28;20049;-84
2022/06/03 05:42:57;;;;;;;10.95;5.20;;;12.80;99.90;;;;;;4981122;28;20047;-84
2022/06/03 05:46:00;;;;;;;9.38;4.63;;;12.90;99.90;;;;;;4979817;28;20046;-84
2022/06/03 05:48:56;;;;;;;10.27;4.65;;;13.00;99.90;;;;;;4964393;28;20038;-84
2022/06/03 05:51:34;;;;;;;11.95;4.90;;;13.10;99.90;;;;;;5013560;28;20038;-84
2022/06/03 05:54:12;;;;;;;10.13;4.68;;;13.20;99.90;;;;;;4997060;28;20101;-84
2022/06/03 05:56:50;;;;;;;11.85;4.80;;;13.30;99.90;;;;;;4980979;28;20058;-84
2022/06/03 05:59:40;;;;;;;10.95;4.57;;;13.40;99.90;;;;;;4996416;28;20039;-84
2022/06/03 06:02:40;;;;;;;10.18;4.60;;;13.40;99.90;;;;;;5013257;28;20043;-84
2022/06/03 06:05:11;;;;;;;12.30;5.18;;;13.50;99.90;;;;;;5013366;28;20389;-85
2022/06/03 06:07:52;;;;;;;13.05;5.80;;;13.60;99.90;;;;;;4996567;28;20130;-84
2022/06/03 06:10:43;;;;;;;10.95;4.45;;;13.80;99.90;;;;;;5013595;28;20046;-84
2022/06/03 06:13:31;;;;;;;11.32;4.78;;;13.90;99.90;;;;;;4980350;28;20073;-84
2022/06/03 06:16:17;;;;;;;9.48;4.82;;;14.00;99.90;;;;;;4980787;28;20181;-84
2022/06/03 06:18:57;;;;;;;9.23;4.18;;;14.10;99.90;;;;;;4964246;28;20508;-84
2022/06/03 06:22:07;;;;;;;11.18;4.50;;;14.20;99.90;;;;;;4995182;28;20042;-84
2022/06/03 06:24:35;;;;;;;12.07;5.32;;;14.20;99.90;;;;;;5010393;28;20411;-84
2022/06/03 06:27:50;;;;;;;10.00;5.10;;;14.40;99.90;;;;;;4977602;28;20046;-85
2022/06/03 06:30:23;;;;;;;8.88;3.97;;;14.60;99.90;;;;;;4969727;28;20047;-84
2022/06/03 06:33:22;;;;;;;9.23;5.03;;;14.60;99.90;;;;;;5010408;28;20049;-85
2022/06/03 06:36:08;;;;;;;11.45;4.78;;;14.70;99.90;;;;;;5009778;28;20042;-85
2022/06/03 06:38:55;;;;;;;11.35;4.43;;;14.80;99.90;;;;;;5009588;28;20050;-85
2022/06/03 06:41:20;;;;;;;9.55;4.00;;;14.80;99.90;;;;;;4977129;28;20065;-85
2022/06/03 06:43:54;;;;;;;8.93;4.05;;;14.90;99.90;;;;;;4993186;28;20042;-85
2022/06/03 06:46:47;;;;;;;10.38;4.25;;;15.00;99.90;;;;;;4977249;28;20128;-85
2022/06/03 06:49:27;;;;;;;9.35;4.05;;;15.10;99.90;;;;;;4960614;28;20121;-85
2022/06/03 06:52:18;;;;;;;9.77;4.75;;;15.20;99.90;;;;;;4976821;28;20050;-84
2022/06/03 06:54:59;;;;;;;10.20;4.90;;;15.30;99.90;;;;;;4976925;28;20073;-85
2022/06/03 06:57:31;;;;;;;8.73;3.70;;;15.40;99.90;;;;;;4976883;28;20125;-84
2022/06/03 07:00:14;;;;;;;10.50;4.13;;;15.40;99.90;;;;;;4976846;28;20038;-85
2022/06/03 07:02:46;;;;;;;9.75;4.28;;;15.50;99.90;;;;;;4976993;28;20360;-85
2022/06/03 07:05:43;;;;;;;10.93;4.20;;;15.50;99.90;;;;;;4960441;28;20042;-85
2022/06/03 07:08:25;;;;;;;10.60;4.30;;;15.70;99.90;;;;;;4976879;28;20635;-84
2022/06/03 07:11:05;;;;;;;9.70;3.40;;;15.70;99.90;;;;;;4976769;28;20042;-85
2022/06/03 07:13:46;;;;;;;8.35;4.00;;;15.80;99.90;;;;;;4976447;28;20045;-84
2022/06/03 07:20:07;;;;;;;9.65;4.25;;;16.00;99.90;;;;;;4976222;28;20038;-85
2022/06/03 07:22:56;;;;;;;9.45;4.00;;;16.10;99.90;;;;;;4976473;28;20061;-85
2022/06/03 07:25:31;;;;;;;9.02;4.20;;;16.20;99.90;;;;;;4976564;28;20088;-85
2022/06/03 07:28:15;;;;;;;8.90;3.47;;;16.30;99.90;;;;;;4975933;28;20039;-85
2022/06/03 07:30:51;;;;;;;10.32;3.53;;;16.40;99.90;;;;;;4976475;28;20125;-85
2022/06/03 07:33:43;;;;;;;7.28;3.78;;;16.50;99.90;;;;;;4959931;28;20045;-85
2022/06/03 07:36:45;;;;;;;8.87;3.40;;;16.60;99.90;;;;;;4976114;28;20082;-85
2022/06/03 07:39:23;;;;;;;9.23;3.85;;;16.70;99.90;;;;;;4976158;28;20050;-84
2022/06/03 07:42:09;;;;;;;8.82;3.85;;;16.80;99.90;;;;;;4976092;28;20061;-85
2022/06/03 07:44:51;;;;;;;8.52;3.55;;;16.80;99.90;;;;;;4976398;28;20038;-85
2022/06/03 07:47:18;;;;;;;7.40;3.70;;;16.90;99.90;;;;;;4976157;28;20096;-85
2022/06/03 07:49:52;;;;;;;7.65;3.55;;;17.00;99.90;;;;;;4975617;28;20038;-84
2022/06/03 07:52:33;;;;;;;8.50;3.28;;;17.10;99.90;;;;;;4959927;28;20112;-85
2022/06/03 07:55:04;;;;;;;9.10;3.33;;;17.20;99.90;;;;;;4976065;28;20046;-85
2022/06/03 07:57:30;;;;;;;8.63;3.77;;;17.30;99.90;;;;;;4975707;28;20526;-85
2022/06/03 08:00:01;;;;;;;10.98;3.70;;;17.30;99.90;;;;;;4993188;28;20531;-85
2022/06/03 08:02:27;;;;;;;7.20;3.17;;;17.40;99.90;;;;;;4959599;28;20085;-85
2022/06/03 08:05:16;;;;;;;8.32;3.60;;;17.40;99.90;;;;;;4959622;28;20085;-85
2022/06/03 08:13:19;;;;;;;8.07;3.30;;;17.60;99.90;;;;;;4975310;28;20078;-85
2022/06/03 08:16:05;;;;;;;8.02;3.28;;;17.70;99.90;;;;;;4975878;28;20048;-84
2022/06/03 08:18:35;;;;;;;10.70;4.13;;;17.80;99.90;;;;;;4975250;28;20042;-85
2022/06/03 08:21:04;;;;;;;7.78;3.50;;;17.90;99.90;;;;;;4958991;28;20042;-85
2022/06/03 08:23:33;;;;;;;9.40;3.92;;;18.00;99.90;;;;;;4975616;28;20052;-85
2022/06/03 08:26:03;;;;;;;9.63;3.63;;;18.10;99.80;;;;;;4974926;28;20411;-85
2022/06/03 08:28:32;;;;;;;8.82;3.65;;;18.10;99.40;;;;;;4974739;28;20095;-85
2022/06/03 08:31:02;;;;;;;8.93;3.72;;;18.20;99.30;;;;;;4959261;28;20041;-85
2022/06/03 08:33:30;;;;;;;10.45;3.78;;;18.30;99.50;;;;;;4975620;28;20038;-85
2022/06/03 08:35:56;;;;;;;9.40;3.63;;;18.40;98.80;;;;;;4974957;28;20038;-85
2022/06/03 08:38:30;;;;;;;8.40;3.60;;;18.40;99.20;;;;;;4975001;28;20129;-85
2022/06/03 08:41:18;;;;;;;9.32;3.30;;;18.50;99.30;;;;;;4975367;28;20038;-85
2022/06/03 08:44:08;;;;;;;7.78;3.20;;;18.60;99.60;;;;;;4974765;28;20530;-85
2022/06/03 08:47:22;;;;;;;7.68;3.40;;;18.70;99.10;;;;;;4975220;28;20042;-85
2022/06/03 08:50:06;;;;;;;7.72;3.40;;;18.70;98.80;;;;;;4944997;28;20038;-86
2022/06/03 08:52:44;;;;;;;9.13;3.63;;;18.80;98.40;;;;;;4974873;28;20416;-85
2022/06/03 08:55:55;;;;;;;8.48;4.20;;;18.90;97.50;;;;;;4975000;28;20042;-85
2022/06/03 08:58:43;;;;;;;8.15;3.42;;;19.00;97.50;;;;;;4897156;29;20044;-85
2022/06/03 09:01:30;;;;;;;10.95;3.25;;;19.00;97.30;;;;;;4971152;28;20408;-85
2022/06/03 09:04:05;;;;;;;10.40;4.80;;;19.10;96.20;;;;;;4974696;28;20049;-85
2022/06/03 09:06:44;;;;;;;8.52;3.20;;;19.20;96.20;;;;;;4974839;28;20117;-85
2022/06/03 09:09:25;;;;;;;8.43;3.50;;;19.20;96.10;;;;;;4974300;28;20038;-84
2022/06/03 09:12:11;;;;;;;8.18;3.60;;;19.30;95.00;;;;;;4974824;28;20050;-86
2022/06/03 09:14:41;;;;;;;7.63;3.30;;;19.40;94.40;;;;;;4974839;28;20507;-85
2022/06/03 09:17:37;;;;;;;7.75;3.35;;;19.40;94.30;;;;;;4974801;28;20042;-85
2022/06/03 09:20:16;;;;;;;7.50;3.20;;;19.50;94.50;;;;;;4966431;28;20165;-85
2022/06/03 09:22:44;;;;;;;6.88;2.92;;;19.60;94.20;;;;;;4958741;28;20304;-85
2022/06/03 09:25:12;;;;;;;7.95;3.30;;;19.60;93.90;;;;;;4974606;28;20046;-85
2022/06/03 09:27:39;;;;;;;9.40;3.20;;;19.70;91.70;;;;;;4974425;28;20074;-85
2022/06/03 09:30:07;;;;;;;9.15;3.20;;;19.80;91.30;;;;;;4974848;28;20064;-85
2022/06/03 09:32:38;;;;;;;8.20;3.28;;;19.80;91.70;;;;;;4975005;28;20097;-85
2022/06/03 09:35:16;;;;;;;6.80;3.20;;;19.90;90.70;;;;;;4974741;28;20220;-85
2022/06/03 09:37:46;;;;;;;8.25;3.90;;;20.00;91.80;;;;;;4974382;28;20046;-85
2022/06/03 09:40:20;;;;;;;8.02;3.42;;;20.10;90.30;;;;;;4974645;28;20523;-85
2022/06/03 09:42:56;;;;;;;7.85;3.47;;;20.10;89.90;;;;;;4974564;28;20050;-85
2022/06/03 09:45:25;;;;;;;8.82;4.20;;;20.20;90.20;;;;;;4974632;28;20041;-85
2022/06/03 09:47:51;;;;;;;8.68;3.10;;;20.30;89.40;;;;;;4973917;28;20669;-85
2022/06/03 09:50:20;;;;;;;7.50;3.10;;;20.30;84.40;;;;;;4974530;28;20034;-85
2022/06/03 09:52:48;;;;;;;7.47;2.97;;;20.40;84.40;;;;;;4974471;28;20077;-85
2022/06/03 09:55:36;;;;;;;8.48;3.03;;;20.40;80.70;;;;;;4974246;28;20046;-85
2022/06/03 09:58:04;;;;;;;7.38;3.08;;;20.50;82.50;;;;;;4976740;28;20044;-85
2022/06/03 10:00:52;;;;;;;7.45;2.72;;;20.60;83.50;;;;;;4975845;28;20050;-85
2022/06/03 10:03:18;;;;;;;7.40;3.00;;;20.70;89.60;;;;;;4975025;28;20492;-85
2022/06/03 10:05:51;;;;;;;7.20;2.85;;;20.70;81.40;;;;;;4977085;28;20082;-85
2022/06/03 10:08:20;;;;;;;7.80;3.10;;;20.80;78.50;;;;;;4994479;28;20034;-85
2022/06/03 10:13:33;;;;;;;7.55;2.70;;;20.90;75.40;;;;;;5010394;28;20050;-85
2022/06/03 10:16:00;;;;;;;7.70;2.85;;;20.90;74.30;;;;;;4993928;28;20039;-85
2022/06/03 10:18:36;;;;;;;7.40;2.70;;;21.10;73.40;;;;;;4976501;28;20085;-85
2022/06/03 10:21:05;;;;;;;8.02;2.90;;;21.10;74.50;;;;;;4994065;28;20078;-85
2022/06/03 10:23:35;;;;;;;6.85;2.30;;;21.20;73.90;;;;;;4977766;28;20074;-85
2022/06/03 10:26:01;;;;;;;5.85;2.42;;;21.30;75.50;;;;;;4977561;28;20034;-85
2022/06/03 10:28:40;;;;;;;7.72;2.72;;;21.40;71.70;;;;;;4977486;28;20034;-85
2022/06/03 10:31:12;;;;;;;6.60;2.55;;;21.40;71.80;;;;;;5009486;28;20046;-83
2022/06/03 10:33:38;;;;;;;6.88;2.78;;;21.50;69.70;;;;;;4978076;28;20149;-85
2022/06/03 10:36:05;;;;;;;6.72;2.45;;;21.50;67.50;;;;;;4978051;28;20539;-85
2022/06/03 10:38:33;;;;;;;6.80;2.40;;;21.60;68.80;;;;;;4977367;28;20134;-85
2022/06/03 10:41:05;;;;;;;5.68;2.33;;;21.70;67.90;;;;;;5009577;28;20412;-85
2022/06/03 10:43:33;;;;;;;7.93;2.95;;;21.70;65.60;;;;;;5010242;28;20045;-85
2022/06/03 10:46:19;;;;;;;6.35;2.33;;;21.70;63.80;;;;;;4977473;28;20038;-84
2022/06/03 10:48:46;;;;;;;6.25;2.20;;;21.80;64.40;;;;;;4992800;28;20042;-85
2022/06/03 11:02:38;;;;;;;5.15;2.00;;;22.20;63.80;;;;;;5009192;28;20108;-85
2022/06/03 11:05:08;;;;;;;5.43;2.20;;;22.30;62.90;;;;;;4977068;28;20070;-85
2022/06/03 11:07:36;;;;;;;7.60;3.42;;;22.40;61.10;;;;;;4975715;28;20169;-85
2022/06/03 11:10:06;;;;;;;7.20;2.88;;;22.40;63.20;;;;;;5009121;28;20129;-85
2022/06/03 11:12:32;;;;;;;6.20;2.67;;;22.50;61.10;;;;;;4977017;28;20042;-85
2022/06/03 11:14:58;;;;;;;9.52;3.88;;;22.50;59.10;;;;;;5009362;28;20048;-85
2022/06/03 11:17:31;;;;;;;6.05;2.50;;;22.60;60.40;;;;;;4976527;28;20049;-85
2022/06/03 11:19:58;;;;;;;4.70;1.80;;;22.70;60.50;;;;;;4976761;28;20443;-86
2022/06/03 11:22:31;;;;;;;5.07;1.90;;;22.80;61.60;;;;;;4960357;28;20042;-86
2022/06/03 11:25:03;;;;;;;5.13;1.90;;;22.90;60.40;;;;;;4976248;28;20496;-86
2022/06/03 11:27:51;;;;;;;6.97;2.00;;;23.00;59.10;;;;;;4992530;28;20574;-86
2022/06/03 11:30:30;;;;;;;5.90;1.80;;;23.00;58.60;;;;;;4976601;28;20034;-85
2022/06/03 11:33:02;;;;;;;5.75;1.80;;;23.20;59.30;;;;;;4991770;28;20054;-86
2022/06/03 11:35:38;;;;;;;6.50;2.33;;;23.20;59.10;;;;;;4976682;28;20046;-85
2022/06/03 11:38:06;;;;;;;10.02;2.28;;;23.30;59.60;;;;;;5008625;28;20046;-86
2022/06/03 11:40:37;;;;;;;5.20;2.10;;;23.40;59.20;;;;;;4959797;28;20503;-86
2022/06/03 11:43:16;;;;;;;6.18;2.10;;;23.40;58.50;;;;;;4976135;28;20045;-86
2022/06/03 11:45:53;;;;;;;6.15;2.28;;;23.50;57.10;;;;;;4992432;28;20453;-85
2022/06/03 11:48:31;;;;;;;6.93;2.15;;;23.50;57.40;;;;;;4975822;28;20445;-86
2022/06/03 11:50:58;;;;;;;5.15;1.80;;;23.60;57.90;;;;;;5008833;28;20505;-86
2022/06/03 11:53:29;;;;;;;5.50;1.63;;;23.70;57.90;;;;;;4976703;28;20046;-86
2022/06/03 11:56:00;;;;;;;7.10;2.20;;;23.80;57.50;;;;;;4975937;28;20042;-86
2022/06/03 11:58:47;;;;;;;8.13;2.55;;;23.90;58.30;;;;;;4975657;28;20050;-86
2022/06/03 12:01:31;;;;;;;6.13;2.10;;;24.00;57.30;;;;;;5008058;28;20477;-86
2022/06/03 12:04:15;;;;;;;6.28;2.30;;;24.10;58.40;;;;;;4992115;28;20077;-85
2022/06/03 12:07:13;;;;;;;6.55;2.20;;;24.20;59.30;;;;;;4975705;28;20042;-85
2022/06/03 12:09:59;;;;;;;5.13;1.75;;;24.30;58.70;;;;;;5007663;28;20117;-86
2022/06/03 12:15:44;;;;;;;6.43;2.42;;;24.50;55.60;;;;;;5008313;28;20084;-86
2022/06/03 12:18:10;;;;;;;5.55;1.85;;;24.50;55.20;;;;;;4962320;28;20129;-86
2022/06/03 12:20:37;;;;;;;5.80;2.15;;;24.60;54.80;;;;;;4991849;28;20125;-86
2022/06/03 12:23:12;;;;;;;7.55;2.20;;;24.60;54.00;;;;;;5007886;28;20121;-86
2022/06/03 12:26:00;;;;;;;5.07;1.95;;;24.70;53.40;;;;;;4975461;28;20050;-86
2022/06/03 12:28:41;;;;;;;4.78;1.80;;;24.80;54.30;;;;;;4976313;28;20067;-86
2022/06/03 12:31:35;;;;;;;6.07;2.20;;;24.90;55.90;;;;;;4975037;28;20168;-86
2022/06/03 12:34:22;;;;;;;6.18;1.95;;;25.00;55.20;;;;;;4975370;28;20042;-86
2022/06/03 12:36:50;;;;;;;6.35;1.85;;;25.10;56.30;;;;;;4975545;28;20065;-86
2022/06/03 12:39:27;;;;;;;6.30;2.17;;;25.20;56.70;;;;;;4990804;28;20045;-86
2022/06/03 12:42:03;;;;;;;6.15;2.25;;;25.30;55.70;;;;;;5007853;28;20043;-86
2022/06/03 12:44:42;;;;;;;6.60;2.00;;;25.30;54.80;;;;;;4991433;28;20038;-87
2022/06/03 12:47:31;;;;;;;5.40;1.98;;;25.50;56.80;;;;;;4974844;28;20523;-86
2022/06/03 12:50:15;;;;;;;6.43;2.20;;;25.40;53.10;;;;;;4991452;28;20046;-86
2022/06/03 12:52:44;;;;;;;7.22;1.85;;;25.40;54.00;;;;;;5007459;28;20049;-86
2022/06/03 12:55:22;;;;;;;8.07;2.70;;;25.50;54.40;;;;;;4975128;28;20496;-86
2022/06/03 12:57:50;;;;;;;7.68;2.50;;;25.50;52.60;;;;;;4974733;28;20042;-86
2022/06/03 13:00:34;;;;;;;6.88;2.90;;;25.60;54.10;;;;;;4974594;28;20049;-86
2022/06/03 13:03:31;;;;;;;6.90;2.20;;;25.70;53.80;;;;;;4974932;28;20049;-86
2022/06/03 13:05:59;;;;;;;6.32;2.10;;;25.80;55.30;;;;;;4974887;28;20051;-86
2022/06/03 13:08:27;;;;;;;5.30;1.95;;;25.70;52.30;;;;;;5006888;28;20049;-86
2022/06/03 13:11:00;;;;;;;5.50;2.10;;;25.80;51.10;;;;;;4974770;28;20049;-86
2022/06/03 13:13:32;;;;;;;6.30;2.08;;;25.80;50.60;;;;;;4974842;28;20038;-86
2022/06/03 13:16:17;;;;;;;;;;;25.90;51.30;;;;;;4974957;28;20415;-86
2022/06/03 13:18:45;;;;;;;5.72;2.10;;;25.90;52.90;;;;;;5006930;28;20387;-85
2022/06/03 13:21:11;;;;;;;5.25;1.88;;;25.90;51.90;;;;;;5005539;28;20088;-86
2022/06/03 13:23:58;;;;;;;5.80;1.90;;;25.90;51.60;;;;;;4972658;28;20046;-86
2022/06/03 13:26:23;;;;;;;6.15;2.30;;;26.00;50.90;;;;;;4974659;28;20480;-86
2022/06/03 13:28:49;;;;;;;4.18;1.65;;;26.00;49.50;;;;;;4974734;28;20050;-86
2022/06/03 13:31:39;;;;;;;6.57;1.90;;;26.10;51.10;;;;;;4976471;28;20046;-86
2022/06/03 13:34:05;;;;;;;7.90;2.15;;;26.30;52.40;;;;;;4978735;28;20046;-85
2022/06/03 13:36:40;;;;;;;6.82;2.30;;;26.30;51.60;;;;;;4978226;28;20511;-86
2022/06/03 13:39:13;;;;;;;5.50;1.92;;;26.40;52.00;;;;;;4961071;28;20042;-85
2022/06/03 13:44:46;;;;;;;7.28;2.25;;;26.50;50.70;;;;;;4977286;28;20448;-86
2022/06/03 13:47:20;;;;;;;4.95;1.90;;;26.60;50.10;;;;;;4959856;28;20396;-86
2022/06/03 13:49:56;;;;;;;7.88;2.20;;;26.40;49.80;;;;;;4978117;28;20042;-86
2022/06/03 13:52:27;;;;;;;5.43;2.00;;;26.30;48.70;;;;;;4977961;28;20044;-86
2022/06/03 13:55:14;;;;;;;7.03;2.38;;;26.30;49.60;;;;;;4978322;28;20038;-86
2022/06/03 13:57:42;;;;;;;6.00;2.13;;;26.30;51.00;;;;;;4938696;28;20050;-86
2022/06/03 14:00:24;;;;;;;6.30;2.28;;;26.40;50.80;;;;;;4961351;28;20168;-86
2022/06/03 14:03:07;;;;;;;5.72;2.35;;;26.50;51.60;;;;;;4961887;28;20099;-86
2022/06/03 14:05:40;;;;;;;5.68;1.90;;;26.50;50.60;;;;;;4962111;28;20120;-86
2022/06/03 14:08:30;;;;;;;4.75;1.70;;;26.60;51.00;;;;;;4977528;28;20076;-86
2022/06/03 14:10:59;;;;;;;5.60;2.10;;;26.60;49.90;;;;;;4977612;28;20046;-86
2022/06/03 14:13:45;;;;;;;7.10;2.20;;;26.60;49.70;;;;;;4980995;28;20608;-86
2022/06/03 14:16:31;;;;;;;6.90;2.40;;;26.60;49.90;;;;;;4975418;28;20054;-86
2022/06/03 14:19:32;;;;;;;6.20;2.00;;;26.70;50.70;;;;;;4960768;28;20046;-86
2022/06/03 14:22:03;;;;;;;5.82;2.17;;;26.80;49.50;;;;;;4976757;28;20070;-86
2022/06/03 14:24:38;;;;;;;6.60;2.50;;;26.80;49.00;;;;;;5000873;28;20417;-86
2022/06/03 14:27:23;;;;;;;4.95;1.60;;;26.80;49.40;;;;;;4977584;28;20043;-86
2022/06/03 14:30:10;;;;;;;6.32;1.88;;;26.80;49.70;;;;;;4975387;28;20042;-86